• Join FlightAware (Why Join?)
  • Login
  • US Flag 
06:52AM EDT


 

Airport Tracker/Info


-or-


 

Live Flight TrackerFlight Track Log ✈ N2764A ✈ 01-Oct-2013 ✈ KMTN - 8G6

Flight Track Log - Related Links

Times and Time Zones

All times are in EDT time to prevent confusion due to time zone crossing. See the N2764A flight status page for this flight to view local times or setup timezone preferences in your user account.

Time Position Orientation Groundspeed Altitude Reporting Facility
EDT Latitude Longitude Course Direction KTS MPH feet Rate Location/Type
08:07AM 39.3667 -76.4500 303° West 99 114 1,900  Level Potomac TRACON
08:08AM 39.3833 -76.4833 303° West 106 122 2,900 540 Climbing Potomac TRACON
08:09AM 39.4000 -76.5167 303° West 150 173 3,000 120 Climbing Potomac TRACON
08:10AM 39.4167 -76.5667 293° West 162 186 3,200 540 Climbing Potomac TRACON
08:11AM 39.4333 -76.6167 293° West 138 159 4,100 780 Climbing Potomac TRACON
08:12AM 39.4333 -76.6667 270° West 136 157 4,800 540 Climbing Potomac TRACON
08:13AM 39.4333 -76.7000 270° West 137 158 5,200 420 Climbing Potomac TRACON
08:14AM 39.4500 -76.7500 293° West 132 152 5,700 480 Climbing Potomac TRACON
08:14AM 39.4500 -76.7833 270° West 132 152 6,100 120 Climbing Potomac TRACON
08:15AM 39.4667 -76.8333 293° West 139 160 6,000 -60 Descending Potomac TRACON
08:16AM 39.4833 -76.8833 293° West 148 170 6,000  Level Potomac TRACON
08:17AM 39.4833 -76.9500 270° West 157 181 6,000  Level Potomac TRACON
08:19AM 39.5000 -77.0000 293° West 161 185 6,000  Level Potomac TRACON
08:20AM 39.5000 -77.0667 270° West 160 184 6,000  Level Potomac TRACON
08:21AM 39.5167 -77.1167 293° West 159 183 6,000  Level Potomac TRACON
08:21AM 39.5333 -77.1667 293° West 158 182 6,000  Level Potomac TRACON
08:23AM 39.5458 -77.2547 280° West 161 185 6,100  Climbing Washington Center
08:24AM 39.5661 -77.3064 297° West 161 185 6,000 -60 Descending Washington Center
08:25AM 39.5819 -77.3578 292° West 161 185 6,000  Level Washington Center
08:26AM 39.5958 -77.4119 288° West 161 185 6,000  Level Washington Center
08:27AM 39.6053 -77.4661 283° West 156 180 6,000  Level Washington Center
08:28AM 39.6192 -77.5178 289° West 156 180 6,000 -60 Level Washington Center
08:29AM 39.6308 -77.5692 286° West 156 180 5,900 -60 Descending Washington Center
08:30AM 39.6425 -77.6206 286° West 156 180 5,900  Level Washington Center
08:31AM 39.6561 -77.6750 288° West 156 180 5,900  Level Washington Center
08:32AM 39.6656 -77.7292 283° West 156 180 5,900  Level Washington Center
08:34AM 39.6768 -77.8052 281° West  Level FlightAware Approximate
08:34AM 39.6956 -77.8467 281° West 154 177 6,000  Level Cleveland Center
08:35AM 39.6989 -77.9019 274° West 153 176 6,000  Level Cleveland Center
08:36AM 39.6922 -77.9686 263° West 154 177 6,000  Level Cleveland Center
08:37AM 39.6894 -78.0239 266° West 154 177 6,000  Level Cleveland Center
08:39AM 39.6867 -78.0778 266° West 152 175 6,000  Level Cleveland Center
08:40AM 39.6944 -78.1303 281° West 151 174 6,000 60 Level Cleveland Center
08:41AM 39.7056 -78.1817 286° West 149 171 6,200 300 Climbing Cleveland Center
08:42AM 39.7144 -78.2333 283° West 147 169 6,700 360 Climbing Cleveland Center
08:43AM 39.7244 -78.2878 283° West 134 154 7,000 120 Climbing Cleveland Center
08:44AM 39.7342 -78.3375 284° West 140 161 7,000  Level Cleveland Center
08:44AM 39.7414 -78.3619 291° West 147 169 7,000  Level Cleveland Center
08:45AM 39.7458 -78.3875 283° West 144 166 7,000  Level Cleveland Center
08:45AM 39.7517 -78.4175 284° West 150 173 7,000  Level Cleveland Center
08:46AM 39.7575 -78.4403 288° West 152 175 7,000  Level Cleveland Center
08:46AM 39.7625 -78.4678 283° West 151 174 7,000  Level Cleveland Center
08:47AM 39.7678 -78.4919 286° West 148 170 7,000  Level Cleveland Center
08:47AM 39.7731 -78.5208 283° West 150 173 7,000  Level Cleveland Center
08:48AM 39.7797 -78.5550 284° West 154 177 7,000  Level Cleveland Center
08:48AM 39.7833 -78.5739 284° West 151 174 7,000  Level Cleveland Center
08:49AM 39.7908 -78.6067 287° West 152 175 7,000  Level Cleveland Center
08:49AM 39.7942 -78.6242 284° West 148 170 7,000  Level Cleveland Center
08:50AM 39.8008 -78.6575 285° West 150 173 7,000  Level Cleveland Center
08:50AM 39.8044 -78.6800 282° West 148 170 7,000  Level Cleveland Center
08:51AM 39.8108 -78.7106 285° West 155 178 7,000  Level Cleveland Center
08:51AM 39.8150 -78.7303 285° West 150 173 7,000  Level Cleveland Center
08:52AM 39.8219 -78.7608 286° West 150 173 7,000  Level Cleveland Center
08:52AM 39.8256 -78.7833 282° West 149 171 7,000  Level Cleveland Center
08:53AM 39.8319 -78.8142 285° West 155 178 7,000  Level Cleveland Center
08:53AM 39.8361 -78.8336 286° West 148 170 7,000  Level Cleveland Center
08:54AM 39.8447 -78.8753 285° West 150 173 7,000  Level Cleveland Center
08:54AM 39.8461 -78.8894 277° West 149 171 7,000  Level Cleveland Center
08:55AM 39.8556 -78.9281 288° West 162 186 7,000  Level Cleveland Center
08:55AM 39.8567 -78.9425 276° West 150 173 7,000  Level Cleveland Center
08:56AM 39.8661 -78.9789 289° West 159 183 7,000 -240 Level Cleveland Center
08:56AM 39.8669 -78.9958 274° West 152 175 6,800 -420 Descending Cleveland Center
08:57AM 39.8769 -79.0356 288° West 171 197 6,600 -420 Descending Cleveland Center
08:57AM 39.8792 -79.0492 282° West 158 182 6,400 -600 Descending Cleveland Center
08:58AM 39.8864 -79.0878 284° West 163 188 6,000 -480 Descending Cleveland Center
08:58AM 39.8889 -79.1103 278° West 149 171 5,900  Descending Cleveland Center
08:59AM 39.8997 -79.1467 291° West 150 173 6,000 60 Climbing Cleveland Center
08:59AM 39.8975 -79.1578 255° West 136 157 6,000  Level Cleveland Center
09:00AM 39.9075 -79.1936 290° West 139 160 6,000  Level Cleveland Center
09:00AM 39.9044 -79.1997 237° Southwest 134 154 6,000  Level Cleveland Center
09:01AM 39.9164 -79.2422 290° West 138 159 6,000  Level Cleveland Center
09:01AM 39.9150 -79.2475 251° West 137 158 6,000  Level Cleveland Center
09:02AM 39.9250 -79.2917 286° West 138 159 6,000  Level Cleveland Center
09:02AM 39.9236 -79.2950 241° Southwest 139 160 6,000  Level Cleveland Center
09:03AM 39.9344 -79.3400 287° West 138 159 6,000  Level Cleveland Center
09:03AM 39.9336 -79.3483 263° West 137 158 6,000  Level Cleveland Center
09:04AM 39.9442 -79.3864 290° West 136 157 6,000  Level Cleveland Center
09:05AM 39.9547 -79.4431 284° West 133 153 6,000  Level Cleveland Center
09:06AM 39.9631 -79.4906 283° West 134 154 6,000  Level Cleveland Center
09:07AM 39.9736 -79.5375 286° West 135 155 6,000  Level Cleveland Center
09:09AM 39.9825 -79.5856 284° West 135 155 6,000  Level Cleveland Center
09:10AM 39.9908 -79.6325 283° West 134 154 6,000  Level Cleveland Center
09:11AM 39.9994 -79.6800 283° West 134 154 6,000  Level Cleveland Center
09:12AM 40.0111 -79.7419 284° West 144 166 6,000  Level Cleveland Center
09:13AM 40.0217 -79.7939 285° West 146 168 6,000  Level Cleveland Center
09:14AM 40.0336 -79.8442 287° West 146 168 6,000  Level Cleveland Center
09:15AM 40.0439 -79.8969 284° West 149 171 6,000  Level Cleveland Center
09:16AM 40.0533 -79.9506 283° West 151 174 6,000  Level Cleveland Center
09:17AM 40.0639 -80.0028 285° West 149 171 6,000  Level Cleveland Center
09:18AM 40.0728 -80.0558 282° West 149 171 6,000  Level Cleveland Center
09:19AM 40.0850 -80.1186 284° West 149 171 6,000  Level Cleveland Center
09:20AM 40.0956 -80.1719 285° West 150 173 6,000  Level Cleveland Center
09:21AM 40.1047 -80.2250 283° West 150 173 6,100  Climbing Cleveland Center
09:22AM 40.1128 -80.2781 281° West 148 170 6,000 -60 Descending Cleveland Center
09:23AM 40.1153 -80.3322 273° West 149 171 6,000  Level Cleveland Center
09:24AM 40.1158 -80.3861 271° West 149 171 6,000  Level Cleveland Center
09:25AM 40.1164 -80.4522 271° West 151 174 6,000 -360 Level Cleveland Center
09:26AM 40.1183 -80.5069 273° West 152 175 5,300 -660 Descending Cleveland Center
09:27AM 40.1206 -80.5583 273° West 144 166 4,700 -660 Descending Cleveland Center
09:28AM 40.1219 -80.6083 272° West 141 162 4,000 -360 Descending Cleveland Center
09:29AM 40.1233 -80.6606 272° West 141 162 4,000  Level Cleveland Center
09:30AM 40.1244 -80.7139 272° West 144 166 4,000 -240 Level Cleveland Center
09:31AM 40.1264 -80.7661 273° West 145 167 3,600 -480 Descending Cleveland Center
09:32AM 40.1372 -80.8214 284° West 150 173 3,100 -420 Descending Cleveland Center
09:33AM 40.1597 -80.8628 305° West 146 168 2,800 -300 Descending Cleveland Center